Time;durP1;ratioP1;P1;durP2;ratioP2;P2;SDS_P1;SDS_P2;PMS_P1;PMS_P2;Temp;Humidity;BMP_temperature;BMP_pressure;BME280_temperature;BME280_humidity;BME280_pressure;Samples;Min_cycle;Max_cycle;Signal;HPM_P1;HPM_P2
2023/09/02 00:00:18;;;;;;;2.58;1.88;;;;;;;;;;4984986;28;20208;-72
2023/09/02 00:02:44;;;;;;;4.97;1.90;;;;;;;;;;4985665;28;20227;-72
2023/09/02 00:05:11;;;;;;;2.10;2.00;;;;;;;;;;4985370;28;20203;-72
2023/09/02 00:07:37;;;;;;;3.90;1.85;;;;;;;;;;4982837;28;20683;-73
2023/09/02 00:10:05;;;;;;;3.45;1.80;;;;;;;;;;4982771;28;20206;-72
2023/09/02 00:12:31;;;;;;;5.38;1.90;;;;;;;;;;4982400;28;20716;-72
2023/09/02 00:14:58;;;;;;;2.05;1.50;;;;;;;;;;4982821;28;20211;-72
2023/09/02 00:17:24;;;;;;;2.42;2.10;;;;;;;;;;4985226;28;20214;-72
2023/09/02 00:19:50;;;;;;;2.00;1.90;;;;;;;;;;4985899;28;20659;-72
2023/09/02 00:22:16;;;;;;;2.35;1.95;;;;;;;;;;4982969;28;20656;-72
2023/09/02 00:24:43;;;;;;;5.40;2.22;;;;;;;;;;4982491;28;20546;-72
2023/09/02 00:27:10;;;;;;;3.38;1.77;;;;;;;;;;4982970;28;20294;-72
2023/09/02 00:29:37;;;;;;;2.03;1.70;;;;;;;;;;4985509;28;20196;-72
2023/09/02 00:32:03;;;;;;;5.78;2.10;;;;;;;;;;4985675;28;20238;-72
2023/09/02 00:34:29;;;;;;;2.00;1.90;;;;;;;;;;4986087;28;20207;-72
2023/09/02 00:36:55;;;;;;;3.92;1.63;;;;;;;;;;4986039;28;20199;-73
2023/09/02 00:39:22;;;;;;;2.70;2.10;;;;;;;;;;4983439;28;20203;-72
2023/09/02 00:41:50;;;;;;;2.22;2.00;;;;;;;;;;4981799;28;20258;-72
2023/09/02 00:44:17;;;;;;;3.80;1.98;;;;;;;;;;4983170;28;20636;-72
2023/09/02 00:46:45;;;;;;;6.68;1.77;;;;;;;;;;4985518;28;20206;-72
2023/09/02 00:49:11;;;;;;;1.67;1.58;;;;;;;;;;4984809;28;20210;-71
2023/09/02 00:51:37;;;;;;;3.42;1.90;;;;;;;;;;4981525;28;20808;-71
2023/09/02 00:54:03;;;;;;;2.22;2.03;;;;;;;;;;4981832;28;20657;-71
2023/09/02 00:56:31;;;;;;;7.82;2.15;;;;;;;;;;4984823;28;20210;-71
2023/09/02 00:59:00;;;;;;;6.93;2.05;;;;;;;;;;4985392;28;20204;-71
2023/09/02 01:01:29;;;;;;;1.65;1.58;;;;;;;;;;4982735;28;20223;-71
2023/09/02 01:03:56;;;;;;;1.92;1.83;;;;;;;;;;4981948;28;20216;-71
2023/09/02 01:06:22;;;;;;;4.20;2.10;;;;;;;;;;4983257;28;20715;-71
2023/09/02 01:08:49;;;;;;;1.90;1.90;;;;;;;;;;4985007;28;20696;-71
2023/09/02 01:11:15;;;;;;;2.67;1.65;;;;;;;;;;4984044;28;20607;-71
2023/09/02 01:13:41;;;;;;;2.65;1.70;;;;;;;;;;4981577;28;20207;-71
2023/09/02 01:16:08;;;;;;;3.17;1.85;;;;;;;;;;4981671;28;20208;-71
2023/09/02 01:18:36;;;;;;;2.00;1.95;;;;;;;;;;4984631;28;20707;-71
2023/09/02 01:21:15;;;;;;;2.50;1.77;;;;;;;;;;4984777;28;20729;-71
2023/09/02 01:23:51;;;;;;;3.45;1.75;;;;;;;;;;4981192;28;20227;-71
2023/09/02 01:26:27;;;;;;;2.35;1.73;;;;;;;;;;4981572;28;20207;-71
2023/09/02 01:28:57;;;;;;;6.03;1.70;;;;;;;;;;4981283;28;20711;-71
2023/09/02 01:31:24;;;;;;;3.45;1.83;;;;;;;;;;4982536;28;20734;-71
2023/09/02 01:33:52;;;;;;;1.77;1.77;;;;;;;;;;4984640;28;20203;-71
2023/09/02 01:36:19;;;;;;;2.30;1.80;;;;;;;;;;4975691;28;20208;-71
2023/09/02 01:38:46;;;;;;;5.30;2.10;;;;;;;;;;4981688;28;20206;-71
2023/09/02 01:41:13;;;;;;;2.90;1.77;;;;;;;;;;4981621;28;20219;-71
2023/09/02 01:43:39;;;;;;;2.05;1.67;;;;;;;;;;4985175;28;20260;-71
2023/09/02 01:46:08;;;;;;;3.97;2.00;;;;;;;;;;4992891;28;20214;-71
2023/09/02 01:48:35;;;;;;;2.22;2.13;;;;;;;;;;4992838;28;20209;-71
2023/09/02 01:51:02;;;;;;;2.20;2.10;;;;;;;;;;4992398;28;20231;-71
2023/09/02 01:53:29;;;;;;;4.43;2.28;;;;;;;;;;4992718;28;20199;-71
2023/09/02 01:55:56;;;;;;;2.80;1.67;;;;;;;;;;4992749;28;20232;-71
2023/09/02 01:58:22;;;;;;;3.55;1.75;;;;;;;;;;4992514;28;20207;-71
2023/09/02 02:00:48;;;;;;;2.55;1.90;;;;;;;;;;4992549;28;20206;-71
2023/09/02 02:03:19;;;;;;;3.38;1.73;;;;;;;;;;4992151;28;20230;-71
2023/09/02 02:05:48;;;;;;;1.63;1.63;;;;;;;;;;4992806;28;20199;-71
2023/09/02 02:08:18;;;;;;;1.98;1.88;;;;;;;;;;4992570;28;20567;-71
2023/09/02 02:10:46;;;;;;;2.47;2.28;;;;;;;;;;4992642;28;20206;-71
2023/09/02 02:13:12;;;;;;;2.90;1.83;;;;;;;;;;4992313;28;20200;-71
2023/09/02 02:15:38;;;;;;;2.25;1.70;;;;;;;;;;4992561;28;20210;-71
2023/09/02 02:18:04;;;;;;;2.75;2.20;;;;;;;;;;4992502;28;20250;-71
2023/09/02 02:20:37;;;;;;;2.00;1.85;;;;;;;;;;4994041;28;20203;-71
2023/09/02 02:23:04;;;;;;;1.92;1.83;;;;;;;;;;4986568;28;20298;-71
2023/09/02 02:25:30;;;;;;;3.33;1.60;;;;;;;;;;4972942;28;20214;-71
2023/09/02 02:27:56;;;;;;;4.45;1.90;;;;;;;;;;4972852;28;20228;-71
2023/09/02 02:30:22;;;;;;;1.88;1.80;;;;;;;;;;4972976;28;20211;-71
2023/09/02 02:32:48;;;;;;;1.80;1.70;;;;;;;;;;4972471;28;20232;-71
2023/09/02 02:35:15;;;;;;;1.80;1.70;;;;;;;;;;4973024;28;20207;-71
2023/09/02 02:37:43;;;;;;;3.63;1.77;;;;;;;;;;4972922;28;20208;-71
2023/09/02 02:40:10;;;;;;;4.78;1.70;;;;;;;;;;4972838;28;20299;-71
2023/09/02 02:42:36;;;;;;;2.25;1.70;;;;;;;;;;4972481;28;20227;-71
2023/09/02 02:45:02;;;;;;;5.10;2.13;;;;;;;;;;4974736;28;20207;-71
2023/09/02 02:47:28;;;;;;;2.80;1.92;;;;;;;;;;4976759;28;20207;-71
2023/09/02 02:49:55;;;;;;;4.32;1.60;;;;;;;;;;4976558;28;20232;-71
2023/09/02 02:52:21;;;;;;;5.68;1.80;;;;;;;;;;4976144;28;20230;-71
2023/09/02 02:54:49;;;;;;;4.25;1.95;;;;;;;;;;4976296;28;20204;-71
2023/09/02 02:57:15;;;;;;;4.32;1.80;;;;;;;;;;4976196;28;20222;-71
2023/09/02 02:59:41;;;;;;;4.50;1.80;;;;;;;;;;4976195;28;20223;-71
2023/09/02 03:02:07;;;;;;;2.10;1.83;;;;;;;;;;4975762;28;20744;-71
2023/09/02 03:04:35;;;;;;;2.00;1.65;;;;;;;;;;4976186;28;20231;-71
2023/09/02 03:07:01;;;;;;;2.53;1.58;;;;;;;;;;4976413;28;20311;-71
2023/09/02 03:09:27;;;;;;;3.38;1.80;;;;;;;;;;4976042;28;20605;-71
2023/09/02 03:11:55;;;;;;;2.40;1.80;;;;;;;;;;4976015;28;20615;-71
2023/09/02 03:14:21;;;;;;;3.03;1.77;;;;;;;;;;4976095;28;20223;-71
2023/09/02 03:16:47;;;;;;;2.40;2.20;;;;;;;;;;4976133;28;20208;-71
2023/09/02 03:19:14;;;;;;;1.50;1.40;;;;;;;;;;4978337;28;20220;-71
2023/09/02 03:21:40;;;;;;;4.20;1.70;;;;;;;;;;4978788;28;20234;-71
2023/09/02 03:24:06;;;;;;;3.13;1.98;;;;;;;;;;4977074;28;20220;-71
2023/09/02 03:26:33;;;;;;;1.80;1.70;;;;;;;;;;4976327;28;20208;-71
2023/09/02 03:29:00;;;;;;;3.42;1.70;;;;;;;;;;4976042;28;20204;-71
2023/09/02 03:31:26;;;;;;;2.00;1.90;;;;;;;;;;4975493;28;20227;-71
2023/09/02 03:33:53;;;;;;;3.33;1.60;;;;;;;;;;4975759;28;20212;-71
2023/09/02 03:36:19;;;;;;;3.35;1.85;;;;;;;;;;4975721;28;20242;-71
2023/09/02 03:38:46;;;;;;;2.58;1.90;;;;;;;;;;4975732;28;20207;-71
2023/09/02 03:41:12;;;;;;;1.92;1.80;;;;;;;;;;4975472;28;20223;-71
2023/09/02 03:43:38;;;;;;;6.63;1.83;;;;;;;;;;4975146;28;20230;-71
2023/09/02 03:46:06;;;;;;;4.25;1.67;;;;;;;;;;4975555;28;20214;-71
2023/09/02 03:48:32;;;;;;;3.20;1.92;;;;;;;;;;4975416;28;20291;-71
2023/09/02 03:50:59;;;;;;;2.53;1.80;;;;;;;;;;4975452;28;20235;-71
2023/09/02 03:53:25;;;;;;;3.47;1.83;;;;;;;;;;4975040;28;20200;-71
2023/09/02 03:55:52;;;;;;;1.80;1.70;;;;;;;;;;4973909;28;20211;-71
2023/09/02 03:58:18;;;;;;;3.63;2.05;;;;;;;;;;4975241;28;20200;-71
2023/09/02 04:00:44;;;;;;;4.05;2.22;;;;;;;;;;4975264;28;20203;-71
2023/09/02 04:03:12;;;;;;;5.68;1.98;;;;;;;;;;4974881;28;20242;-71
2023/09/02 04:05:38;;;;;;;2.80;2.03;;;;;;;;;;4975083;28;20610;-71
2023/09/02 04:08:05;;;;;;;4.05;1.83;;;;;;;;;;4975075;28;20203;-71
2023/09/02 04:10:31;;;;;;;6.25;2.50;;;;;;;;;;4975089;28;20200;-71
2023/09/02 04:12:58;;;;;;;4.25;1.92;;;;;;;;;;4976344;28;20243;-71
2023/09/02 04:15:25;;;;;;;2.00;1.92;;;;;;;;;;4976400;28;20678;-71
2023/09/02 04:17:51;;;;;;;6.25;2.38;;;;;;;;;;4974991;28;20242;-71
2023/09/02 04:20:19;;;;;;;2.38;2.17;;;;;;;;;;4975081;28;20215;-66
2023/09/02 04:22:45;;;;;;;1.92;1.65;;;;;;;;;;4974771;28;20274;-66
2023/09/02 04:25:12;;;;;;;1.95;1.83;;;;;;;;;;4974699;28;20227;-66
2023/09/02 04:27:38;;;;;;;3.72;2.00;;;;;;;;;;4974772;28;20576;-66
2023/09/02 04:30:05;;;;;;;1.95;1.92;;;;;;;;;;4974856;28;20207;-66
2023/09/02 04:32:31;;;;;;;3.42;1.80;;;;;;;;;;4974354;28;20255;-66
2023/09/02 04:34:58;;;;;;;3.83;2.33;;;;;;;;;;4974695;28;20203;-66
2023/09/02 04:37:25;;;;;;;3.33;2.22;;;;;;;;;;4974450;28;20211;-66
2023/09/02 04:39:52;;;;;;;4.40;2.55;;;;;;;;;;4974726;28;20207;-66
2023/09/02 04:42:18;;;;;;;4.80;2.58;;;;;;;;;;4974269;28;20300;-66
2023/09/02 04:44:44;;;;;;;3.17;2.40;;;;;;;;;;4974561;28;20228;-66
2023/09/02 04:47:12;;;;;;;4.63;1.98;;;;;;;;;;4974577;28;20227;-66
2023/09/02 04:49:38;;;;;;;6.25;3.03;;;;;;;;;;4974220;28;20262;-66
2023/09/02 04:52:05;;;;;;;3.15;2.10;;;;;;;;;;4974163;28;20232;-66
2023/09/02 04:54:32;;;;;;;5.90;2.38;;;;;;;;;;4974337;28;20199;-66
2023/09/02 04:56:59;;;;;;;6.65;2.13;;;;;;;;;;4974265;28;20250;-66
2023/09/02 04:59:26;;;;;;;3.53;2.30;;;;;;;;;;4973991;28;20816;-66
2023/09/02 05:01:52;;;;;;;4.88;2.40;;;;;;;;;;4973705;28;20274;-66
2023/09/02 05:04:18;;;;;;;6.82;2.10;;;;;;;;;;4973911;28;20220;-66
2023/09/02 05:06:44;;;;;;;4.53;2.33;;;;;;;;;;4973687;28;20223;-66
2023/09/02 05:09:11;;;;;;;5.57;2.20;;;;;;;;;;4974112;28;20239;-66
2023/09/02 05:11:38;;;;;;;8.35;2.20;;;;;;;;;;4973462;28;20231;-66
2023/09/02 05:14:05;;;;;;;3.17;2.10;;;;;;;;;;4973813;28;20676;-66
2023/09/02 05:16:31;;;;;;;3.38;2.20;;;;;;;;;;4974251;28;20211;-66
2023/09/02 05:18:57;;;;;;;3.63;1.98;;;;;;;;;;4973799;28;20204;-66
2023/09/02 05:21:23;;;;;;;3.10;1.98;;;;;;;;;;4973628;28;20263;-66
2023/09/02 05:23:50;;;;;;;7.20;2.22;;;;;;;;;;4973448;28;20226;-66
2023/09/02 05:26:16;;;;;;;2.17;1.98;;;;;;;;;;4973799;28;20204;-66
2023/09/02 05:28:43;;;;;;;6.18;2.35;;;;;;;;;;4973595;28;20210;-66
2023/09/02 05:31:10;;;;;;;4.95;2.28;;;;;;;;;;4973342;28;20574;-67
2023/09/02 05:33:36;;;;;;;3.58;1.92;;;;;;;;;;4973338;28;20349;-66
2023/09/02 05:36:02;;;;;;;2.28;2.15;;;;;;;;;;4973705;28;20628;-66
2023/09/02 05:38:28;;;;;;;7.10;2.40;;;;;;;;;;4973699;28;20233;-66
2023/09/02 05:40:55;;;;;;;10.38;2.35;;;;;;;;;;4973288;28;20716;-66
2023/09/02 05:43:24;;;;;;;4.03;2.53;;;;;;;;;;4973051;28;20691;-66
2023/09/02 05:45:52;;;;;;;1.85;1.83;;;;;;;;;;4973310;28;20231;-66
2023/09/02 05:48:18;;;;;;;4.38;2.65;;;;;;;;;;4973394;28;20211;-66
2023/09/02 05:50:44;;;;;;;6.25;2.10;;;;;;;;;;4973599;28;20693;-66
2023/09/02 05:53:10;;;;;;;5.45;2.05;;;;;;;;;;4973114;28;20618;-66
2023/09/02 05:55:37;;;;;;;2.20;2.00;;;;;;;;;;4973490;28;20603;-67
2023/09/02 05:58:03;;;;;;;2.22;2.13;;;;;;;;;;4973545;28;20215;-66
2023/09/02 06:00:29;;;;;;;2.55;2.15;;;;;;;;;;4973502;28;20258;-66
2023/09/02 06:02:57;;;;;;;3.80;1.95;;;;;;;;;;4973229;28;20232;-66
2023/09/02 06:05:23;;;;;;;3.83;2.63;;;;;;;;;;4974746;28;20230;-66
2023/09/02 06:07:50;;;;;;;2.67;2.13;;;;;;;;;;4975662;28;20207;-66
2023/09/02 06:10:16;;;;;;;2.20;2.10;;;;;;;;;;4973352;28;20211;-66
2023/09/02 06:12:42;;;;;;;2.40;2.17;;;;;;;;;;4973060;28;20231;-66
2023/09/02 06:15:09;;;;;;;3.30;2.40;;;;;;;;;;4973516;28;20213;-66
2023/09/02 06:17:35;;;;;;;2.75;2.55;;;;;;;;;;4973144;28;20207;-66
2023/09/02 06:20:03;;;;;;;2.92;2.33;;;;;;;;;;4975413;28;20208;-66
2023/09/02 06:22:29;;;;;;;3.53;2.47;;;;;;;;;;4976964;28;20267;-66
2023/09/02 06:24:55;;;;;;;5.35;2.72;;;;;;;;;;4977081;28;20216;-66
2023/09/02 06:27:21;;;;;;;2.95;2.65;;;;;;;;;;4977131;28;20242;-66
2023/09/02 06:29:48;;;;;;;9.23;2.80;;;;;;;;;;4977141;28;20211;-66
2023/09/02 06:32:14;;;;;;;3.80;2.60;;;;;;;;;;4976285;28;20731;-66
2023/09/02 06:34:40;;;;;;;3.63;3.25;;;;;;;;;;4976835;28;20664;-66
2023/09/02 06:37:08;;;;;;;3.03;2.83;;;;;;;;;;4976668;28;20585;-66
2023/09/02 06:39:34;;;;;;;4.60;3.85;;;;;;;;;;4976666;28;20215;-67
2023/09/02 06:42:00;;;;;;;4.50;3.72;;;;;;;;;;4976548;28;20231;-67
2023/09/02 06:44:26;;;;;;;3.60;3.35;;;;;;;;;;4976483;28;20220;-67
2023/09/02 06:46:53;;;;;;;4.05;3.75;;;;;;;;;;4976572;28;20199;-67
2023/09/02 06:49:19;;;;;;;5.80;3.88;;;;;;;;;;4976934;28;20207;-67
2023/09/02 06:51:45;;;;;;;3.88;3.20;;;;;;;;;;4976347;28;20586;-67
2023/09/02 06:54:13;;;;;;;5.03;3.20;;;;;;;;;;4976682;28;20204;-67
2023/09/02 06:56:39;;;;;;;4.15;3.33;;;;;;;;;;4976498;28;20215;-67
2023/09/02 06:59:05;;;;;;;3.80;3.50;;;;;;;;;;4976004;28;20204;-67
2023/09/02 07:01:31;;;;;;;3.40;3.10;;;;;;;;;;4975616;28;20228;-71
2023/09/02 07:03:58;;;;;;;3.20;2.95;;;;;;;;;;4976264;28;20199;-71
2023/09/02 07:06:24;;;;;;;3.70;2.85;;;;;;;;;;4976047;28;20255;-71
2023/09/02 07:08:50;;;;;;;3.97;2.60;;;;;;;;;;4976058;28;20211;-71
2023/09/02 07:11:18;;;;;;;2.60;2.47;;;;;;;;;;4975818;28;20223;-71
2023/09/02 07:13:45;;;;;;;3.13;2.80;;;;;;;;;;4975534;28;20204;-71
2023/09/02 07:16:12;;;;;;;3.03;2.83;;;;;;;;;;4975467;28;20200;-71
2023/09/02 07:18:38;;;;;;;6.03;2.55;;;;;;;;;;4975502;28;20207;-71
2023/09/02 07:21:06;;;;;;;5.15;2.88;;;;;;;;;;4975506;28;20231;-70
2023/09/02 07:23:32;;;;;;;2.55;2.45;;;;;;;;;;4975293;28;20204;-70
2023/09/02 07:26:00;;;;;;;3.30;3.00;;;;;;;;;;4975279;28;20259;-70
2023/09/02 07:28:28;;;;;;;2.88;2.67;;;;;;;;;;4975272;28;20235;-70
2023/09/02 07:30:56;;;;;;;2.63;2.42;;;;;;;;;;4974857;28;20709;-71
2023/09/02 07:33:22;;;;;;;2.47;2.28;;;;;;;;;;4975212;28;20210;-70
2023/09/02 07:35:48;;;;;;;3.42;2.95;;;;;;;;;;4975114;28;20602;-70
2023/09/02 07:38:14;;;;;;;3.60;2.47;;;;;;;;;;4975237;28;20315;-71
2023/09/02 07:40:41;;;;;;;3.53;2.55;;;;;;;;;;4975422;28;20211;-70
2023/09/02 07:43:07;;;;;;;2.65;2.55;;;;;;;;;;4974530;28;21094;-70
2023/09/02 07:45:34;;;;;;;4.22;2.22;;;;;;;;;;4976340;28;20235;-69
2023/09/02 07:48:01;;;;;;;2.70;2.50;;;;;;;;;;4979919;28;20210;-70
2023/09/02 07:50:27;;;;;;;2.08;2.05;;;;;;;;;;4982460;28;20207;-70
2023/09/02 07:52:53;;;;;;;2.70;2.47;;;;;;;;;;4984492;28;20644;-71
2023/09/02 07:55:19;;;;;;;4.50;2.25;;;;;;;;;;4993965;28;20543;-71
2023/09/02 07:57:46;;;;;;;4.05;2.35;;;;;;;;;;4994620;28;20207;-71
2023/09/02 08:00:12;;;;;;;2.70;2.42;;;;;;;;;;4994910;28;20207;-71
2023/09/02 08:02:40;;;;;;;4.30;2.10;;;;;;;;;;4994021;28;20227;-71
2023/09/02 08:05:07;;;;;;;3.95;2.10;;;;;;;;;;4994006;28;20721;-71
2023/09/02 08:07:34;;;;;;;2.38;1.95;;;;;;;;;;4994171;28;20210;-71
2023/09/02 08:10:00;;;;;;;2.40;2.25;;;;;;;;;;4993939;28;20203;-71
2023/09/02 08:12:26;;;;;;;2.10;1.92;;;;;;;;;;4993878;28;20231;-71
2023/09/02 08:14:53;;;;;;;2.35;1.80;;;;;;;;;;4994140;28;20221;-71
2023/09/02 08:17:20;;;;;;;3.25;2.20;;;;;;;;;;4994190;28;20203;-71
2023/09/02 08:19:47;;;;;;;3.72;1.90;;;;;;;;;;4994006;28;20238;-70
2023/09/02 08:22:14;;;;;;;2.13;1.90;;;;;;;;;;4993637;28;20258;-71
2023/09/02 08:24:40;;;;;;;2.08;1.88;;;;;;;;;;4993620;28;20218;-71
2023/09/02 08:27:06;;;;;;;2.53;1.90;;;;;;;;;;4993847;28;20214;-70
2023/09/02 08:29:33;;;;;;;3.72;2.13;;;;;;;;;;4993630;28;20688;-71
2023/09/02 08:32:00;;;;;;;2.75;1.80;;;;;;;;;;4993539;28;20258;-71
2023/09/02 08:34:26;;;;;;;5.28;2.42;;;;;;;;;;4993672;28;20207;-71
2023/09/02 08:36:54;;;;;;;2.55;1.92;;;;;;;;;;4993961;28;20395;-71
2023/09/02 08:39:20;;;;;;;6.05;2.00;;;;;;;;;;4993471;28;20207;-71
2023/09/02 08:41:49;;;;;;;1.70;1.70;;;;;;;;;;4992825;28;20226;-71
2023/09/02 08:44:16;;;;;;;1.90;1.80;;;;;;;;;;4993552;28;20207;-71
2023/09/02 08:46:45;;;;;;;3.13;1.83;;;;;;;;;;4993285;28;20710;-71
2023/09/02 08:49:12;;;;;;;2.22;2.08;;;;;;;;;;4993647;28;20199;-70
2023/09/02 08:51:39;;;;;;;3.10;2.13;;;;;;;;;;4993010;28;20245;-71
2023/09/02 08:54:07;;;;;;;2.28;1.77;;;;;;;;;;4993197;28;20687;-72
2023/09/02 08:56:34;;;;;;;2.47;2.22;;;;;;;;;;4993722;28;20210;-71
2023/09/02 08:59:00;;;;;;;1.90;1.80;;;;;;;;;;4993181;28;20651;-71
2023/09/02 09:01:29;;;;;;;2.13;1.85;;;;;;;;;;4992992;28;20314;-71
2023/09/02 09:03:56;;;;;;;2.72;2.00;;;;;;;;;;4992963;28;20613;-71
2023/09/02 09:06:23;;;;;;;3.72;2.00;;;;;;;;;;4992988;28;20227;-71
2023/09/02 09:08:50;;;;;;;3.42;1.90;;;;;;;;;;4993136;28;20198;-71
2023/09/02 09:11:18;;;;;;;2.85;2.00;;;;;;;;;;4993066;28;20226;-71
2023/09/02 09:13:46;;;;;;;1.90;1.80;;;;;;;;;;4992904;28;20231;-71
2023/09/02 09:16:14;;;;;;;1.67;1.58;;;;;;;;;;4993187;28;20206;-72
2023/09/02 09:18:41;;;;;;;6.78;1.95;;;;;;;;;;4992862;28;20203;-71
2023/09/02 09:21:07;;;;;;;2.38;2.15;;;;;;;;;;4992788;28;20231;-72
2023/09/02 09:23:34;;;;;;;4.07;1.60;;;;;;;;;;4992694;28;20207;-71
2023/09/02 09:26:01;;;;;;;2.30;2.10;;;;;;;;;;4993088;28;20249;-72
2023/09/02 09:28:50;;;;;;;4.13;2.17;;;;;;;;;;4992887;28;20210;-72
2023/09/02 09:31:17;;;;;;;1.77;1.67;;;;;;;;;;4992654;28;20739;-72
2023/09/02 09:33:48;;;;;;;2.22;1.85;;;;;;;;;;4993119;28;20209;-72
2023/09/02 09:36:15;;;;;;;2.75;1.95;;;;;;;;;;4993035;28;20210;-72
2023/09/02 09:38:41;;;;;;;4.15;2.00;;;;;;;;;;4992574;28;20277;-72
2023/09/02 09:41:08;;;;;;;2.72;1.90;;;;;;;;;;4992354;28;20218;-72
2023/09/02 09:43:36;;;;;;;2.88;1.90;;;;;;;;;;4992511;28;20210;-71
2023/09/02 09:46:03;;;;;;;1.70;1.60;;;;;;;;;;4992323;28;20234;-72
2023/09/02 09:48:30;;;;;;;3.83;1.83;;;;;;;;;;4992378;28;20683;-72
2023/09/02 09:50:56;;;;;;;2.08;1.92;;;;;;;;;;4992460;28;20227;-72
2023/09/02 09:53:23;;;;;;;2.03;1.92;;;;;;;;;;4992165;28;20202;-72
2023/09/02 09:55:50;;;;;;;4.05;1.73;;;;;;;;;;4992717;28;20652;-72
2023/09/02 09:58:22;;;;;;;2.28;1.52;;;;;;;;;;4992446;28;20245;-72
2023/09/02 10:00:52;;;;;;;3.38;1.50;;;;;;;;;;4992408;28;20206;-72
2023/09/02 10:03:29;;;;;;;1.63;1.52;;;;;;;;;;4992126;28;20252;-72
2023/09/02 10:05:58;;;;;;;1.50;1.40;;;;;;;;;;4992213;28;20545;-72
2023/09/02 10:08:24;;;;;;;1.52;1.52;;;;;;;;;;4992392;28;20226;-72
2023/09/02 10:10:51;;;;;;;1.95;1.85;;;;;;;;;;4991939;28;20205;-72
2023/09/02 10:13:18;;;;;;;3.47;1.90;;;;;;;;;;4992109;28;20469;-72
2023/09/02 10:15:44;;;;;;;1.55;1.55;;;;;;;;;;4992205;28;20198;-71
2023/09/02 10:18:13;;;;;;;1.65;1.55;;;;;;;;;;4992090;28;20206;-72
2023/09/02 10:20:39;;;;;;;2.60;1.58;;;;;;;;;;4991932;28;20202;-71
2023/09/02 10:23:06;;;;;;;3.47;1.50;;;;;;;;;;4992217;28;20451;-71
2023/09/02 10:25:38;;;;;;;1.77;1.27;;;;;;;;;;4991823;28;20225;-72
2023/09/02 10:28:05;;;;;;;1.60;1.50;;;;;;;;;;4992198;28;20209;-72
2023/09/02 10:30:32;;;;;;;2.38;1.65;;;;;;;;;;4992018;28;20210;-72
2023/09/02 10:33:00;;;;;;;1.45;1.35;;;;;;;;;;4991508;28;20674;-72
2023/09/02 10:35:29;;;;;;;1.60;1.50;;;;;;;;;;4991922;28;20202;-72
2023/09/02 10:37:56;;;;;;;1.55;1.23;;;;;;;;;;4991677;28;20207;-72
2023/09/02 10:40:23;;;;;;;1.52;1.42;;;;;;;;;;4992143;28;20230;-72
2023/09/02 10:42:50;;;;;;;1.35;1.25;;;;;;;;;;4991697;28;20233;-71
2023/09/02 10:45:16;;;;;;;1.63;1.30;;;;;;;;;;4991983;28;20245;-72
2023/09/02 10:47:43;;;;;;;1.13;1.13;;;;;;;;;;4991974;28;20203;-72
2023/09/02 10:50:10;;;;;;;1.20;1.10;;;;;;;;;;4991850;28;20404;-72
2023/09/02 10:52:38;;;;;;;1.52;1.00;;;;;;;;;;4991341;28;20732;-72
2023/09/02 10:55:04;;;;;;;1.73;1.13;;;;;;;;;;4992168;28;20210;-72
2023/09/02 10:57:31;;;;;;;3.28;1.10;;;;;;;;;;4991891;28;20202;-72
2023/09/02 11:00:13;;;;;;;1.23;1.23;;;;;;;;;;4991713;28;20702;-72
2023/09/02 11:02:40;;;;;;;5.72;1.30;;;;;;;;;;4991519;28;20620;-72
2023/09/02 11:05:07;;;;;;;0.93;0.93;;;;;;;;;;4992298;28;20206;-72
2023/09/02 11:07:33;;;;;;;2.97;1.25;;;;;;;;;;4995491;28;20249;-72
2023/09/02 11:10:01;;;;;;;1.67;1.15;;;;;;;;;;4995609;28;20293;-72
2023/09/02 11:12:28;;;;;;;2.22;1.20;;;;;;;;;;4995090;28;20226;-72
2023/09/02 11:15:13;;;;;;;1.20;1.20;;;;;;;;;;4995401;28;20207;-72
2023/09/02 11:17:40;;;;;;;1.13;1.13;;;;;;;;;;4995112;28;20202;-72
2023/09/02 11:20:08;;;;;;;0.98;0.98;;;;;;;;;;4995352;28;20213;-72
2023/09/02 11:22:50;;;;;;;1.30;1.17;;;;;;;;;;4995201;28;20223;-72
2023/09/02 11:25:25;;;;;;;0.82;0.82;;;;;;;;;;4995103;28;20671;-72
2023/09/02 11:27:53;;;;;;;1.30;1.27;;;;;;;;;;4995067;28;20203;-72
2023/09/02 11:30:19;;;;;;;1.27;1.27;;;;;;;;;;4994943;28;20721;-72
2023/09/02 11:32:46;;;;;;;1.50;1.15;;;;;;;;;;4994566;28;20233;-72
2023/09/02 11:35:12;;;;;;;1.25;1.02;;;;;;;;;;4995083;28;20202;-72
2023/09/02 11:37:39;;;;;;;3.67;1.00;;;;;;;;;;4994808;28;20667;-72
2023/09/02 11:40:12;;;;;;;2.17;1.10;;;;;;;;;;4995087;28;20213;-72
2023/09/02 11:42:48;;;;;;;0.90;0.90;;;;;;;;;;4994435;28;20229;-72
2023/09/02 11:45:15;;;;;;;1.35;0.80;;;;;;;;;;4995170;28;20206;-72
2023/09/02 11:47:41;;;;;;;1.90;1.10;;;;;;;;;;4994783;28;20242;-72
2023/09/02 11:50:11;;;;;;;1.27;1.20;;;;;;;;;;4994629;28;20203;-70
2023/09/02 11:52:37;;;;;;;1.05;0.95;;;;;;;;;;4994759;28;20269;-72
2023/09/02 11:55:07;;;;;;;3.00;0.90;;;;;;;;;;4996250;28;20206;-71
2023/09/02 11:57:33;;;;;;;1.85;1.00;;;;;;;;;;4994568;28;20663;-71
2023/09/02 12:00:01;;;;;;;0.82;0.82;;;;;;;;;;4994655;28;20616;-71
2023/09/02 12:02:27;;;;;;;1.02;1.02;;;;;;;;;;4994232;28;20226;-71
2023/09/02 12:04:53;;;;;;;1.02;1.00;;;;;;;;;;4994492;28;20206;-71
2023/09/02 12:07:20;;;;;;;3.22;1.25;;;;;;;;;;4994590;28;20225;-71
2023/09/02 12:09:47;;;;;;;1.10;1.10;;;;;;;;;;4994793;28;20245;-71
2023/09/02 12:12:15;;;;;;;1.75;1.30;;;;;;;;;;4993949;28;20645;-71
2023/09/02 12:14:41;;;;;;;2.63;1.13;;;;;;;;;;4994786;28;20210;-71
2023/09/02 12:17:09;;;;;;;3.55;1.08;;;;;;;;;;4993416;28;20569;-71
2023/09/02 12:19:35;;;;;;;0.90;0.90;;;;;;;;;;4994183;28;20706;-71
2023/09/02 12:22:02;;;;;;;1.00;1.00;;;;;;;;;;4993646;28;20285;-71
2023/09/02 12:24:29;;;;;;;2.25;1.40;;;;;;;;;;4994451;28;20199;-71
2023/09/02 12:26:55;;;;;;;4.10;1.20;;;;;;;;;;4994287;28;20229;-71
2023/09/02 12:29:22;;;;;;;1.27;1.17;;;;;;;;;;4994050;28;20210;-71
2023/09/02 12:31:52;;;;;;;1.52;1.50;;;;;;;;;;4993557;28;20715;-71
2023/09/02 12:34:20;;;;;;;1.40;1.30;;;;;;;;;;4993874;28;20732;-71
2023/09/02 12:36:46;;;;;;;1.42;1.42;;;;;;;;;;4993893;28;20202;-71
2023/09/02 12:39:22;;;;;;;1.10;1.10;;;;;;;;;;4994051;28;20210;-71
2023/09/02 12:41:48;;;;;;;3.88;1.00;;;;;;;;;;4993587;28;20234;-71
2023/09/02 12:44:15;;;;;;;2.63;1.75;;;;;;;;;;4993907;28;20206;-72
2023/09/02 12:46:41;;;;;;;19.13;6.68;;;;;;;;;;4993546;28;20253;-71
2023/09/02 12:49:07;;;;;;;1.20;1.00;;;;;;;;;;4993575;28;20202;-71
2023/09/02 12:51:39;;;;;;;3.35;1.75;;;;;;;;;;4993408;28;20226;-71
2023/09/02 12:54:08;;;;;;;2.55;1.30;;;;;;;;;;4993774;28;20261;-71
2023/09/02 12:56:34;;;;;;;2.17;1.48;;;;;;;;;;4993660;28;20210;-71
2023/09/02 12:59:00;;;;;;;2.05;1.15;;;;;;;;;;4993420;28;20203;-71
2023/09/02 13:01:26;;;;;;;1.02;1.02;;;;;;;;;;4993194;28;20249;-71
2023/09/02 13:03:53;;;;;;;1.50;1.40;;;;;;;;;;4993096;28;20199;-71
2023/09/02 13:06:19;;;;;;;1.13;1.10;;;;;;;;;;4993419;28;20235;-71
2023/09/02 13:08:47;;;;;;;4.25;3.80;;;;;;;;;;4993344;28;20206;-71
2023/09/02 13:11:13;;;;;;;1.73;1.30;;;;;;;;;;4993203;28;20222;-71
2023/09/02 13:13:39;;;;;;;1.20;1.17;;;;;;;;;;4992980;28;20577;-71
2023/09/02 13:16:06;;;;;;;4.47;2.42;;;;;;;;;;4993019;28;20206;-71
2023/09/02 13:18:32;;;;;;;1.65;1.55;;;;;;;;;;4992946;28;20210;-71
2023/09/02 13:20:59;;;;;;;2.97;2.22;;;;;;;;;;4992907;28;20729;-71
2023/09/02 13:23:26;;;;;;;2.97;1.15;;;;;;;;;;4993280;28;20210;-71
2023/09/02 13:25:53;;;;;;;1.13;1.13;;;;;;;;;;4993409;28;20199;-73
2023/09/02 13:28:19;;;;;;;1.98;1.60;;;;;;;;;;4993017;28;20206;-72
2023/09/02 13:30:46;;;;;;;1.95;1.20;;;;;;;;;;4992720;28;20202;-72
2023/09/02 13:33:13;;;;;;;6.75;6.25;;;;;;;;;;4992952;28;20202;-72
2023/09/02 13:35:39;;;;;;;1.17;1.15;;;;;;;;;;4993621;28;20305;-72
2023/09/02 13:38:09;;;;;;;1.80;1.05;;;;;;;;;;4993890;28;20532;-72
2023/09/02 13:40:36;;;;;;;1.40;1.30;;;;;;;;;;4995224;28;20210;-72
2023/09/02 13:43:11;;;;;;;1.10;1.10;;;;;;;;;;4998461;28;20265;-72
2023/09/02 13:45:38;;;;;;;1.85;1.45;;;;;;;;;;4993473;28;20670;-72
2023/09/02 13:48:06;;;;;;;1.45;1.20;;;;;;;;;;4993813;28;20639;-72
2023/09/02 13:50:32;;;;;;;0.95;0.95;;;;;;;;;;4995161;28;20663;-72
2023/09/02 13:53:00;;;;;;;0.90;0.90;;;;;;;;;;4993406;28;20203;-72
2023/09/02 13:55:27;;;;;;;1.50;1.40;;;;;;;;;;4993326;28;20206;-72
2023/09/02 13:57:53;;;;;;;3.13;1.10;;;;;;;;;;4993464;28;20202;-72
2023/09/02 14:00:26;;;;;;;2.05;1.00;;;;;;;;;;4993312;28;20552;-72
2023/09/02 14:02:54;;;;;;;0.98;0.98;;;;;;;;;;4982550;28;20583;-73
2023/09/02 14:05:21;;;;;;;2.05;1.02;;;;;;;;;;4973356;28;20216;-74
2023/09/02 14:07:48;;;;;;;1.25;1.15;;;;;;;;;;4972873;28;20219;-73
2023/09/02 14:10:15;;;;;;;1.00;1.00;;;;;;;;;;4972968;28;20624;-73
2023/09/02 14:12:41;;;;;;;1.88;1.30;;;;;;;;;;4973066;28;20340;-73
2023/09/02 14:15:07;;;;;;;1.60;1.00;;;;;;;;;;4973259;28;20612;-73
2023/09/02 14:17:35;;;;;;;1.30;1.10;;;;;;;;;;4973103;28;20203;-73
2023/09/02 14:20:01;;;;;;;1.10;1.10;;;;;;;;;;4973208;28;20214;-72
2023/09/02 14:22:27;;;;;;;1.33;1.23;;;;;;;;;;4972451;28;20251;-72
2023/09/02 14:24:54;;;;;;;4.05;1.13;;;;;;;;;;4972747;28;20199;-72
2023/09/02 14:27:20;;;;;;;1.25;1.25;;;;;;;;;;4973188;28;20223;-72
2023/09/02 14:29:46;;;;;;;1.63;1.20;;;;;;;;;;4972859;28;20214;-72
2023/09/02 14:32:13;;;;;;;1.00;1.00;;;;;;;;;;4972726;28;20235;-72
2023/09/02 14:34:42;;;;;;;3.08;1.30;;;;;;;;;;4972985;28;20299;-72
2023/09/02 14:37:09;;;;;;;1.05;0.95;;;;;;;;;;4973175;28;20200;-72
2023/09/02 14:39:36;;;;;;;1.17;1.15;;;;;;;;;;4973270;28;20207;-72
2023/09/02 14:42:03;;;;;;;1.63;1.15;;;;;;;;;;4976697;28;20763;-72